createdAt,value
2022-10-18T05:37:58.554Z,17.42
2022-10-18T05:43:19.534Z,16.33
2022-10-18T05:48:40.536Z,24.88
2022-10-18T05:54:01.407Z,15.63
2022-10-18T05:59:22.354Z,13.20
2022-10-18T06:04:43.107Z,10.23
2022-10-18T06:10:04.228Z,9.57
2022-10-18T06:15:24.783Z,8.82
2022-10-18T06:20:45.830Z,9.65
2022-10-18T06:26:09.860Z,9.30
2022-10-18T06:31:30.957Z,8.32
2022-10-18T06:36:55.019Z,9.48
2022-10-18T06:42:21.825Z,8.95
2022-10-18T06:47:43.469Z,9.15
2022-10-18T06:53:06.254Z,8.30
2022-10-18T06:58:27.516Z,8.45
2022-10-18T07:03:49.276Z,8.35
2022-10-18T07:09:10.658Z,7.28
2022-10-18T07:14:31.436Z,7.82
2022-10-18T07:19:52.179Z,7.35
2022-10-18T07:25:12.997Z,7.63
2022-10-18T07:30:34.175Z,7.93
2022-10-18T07:35:55.234Z,8.05
2022-10-18T07:41:16.240Z,7.32
2022-10-18T07:46:37.105Z,7.38
2022-10-18T07:51:57.955Z,7.47
2022-10-18T07:57:18.889Z,7.07
2022-10-18T08:02:39.621Z,14.73
2022-10-18T08:08:03.084Z,8.23
2022-10-18T08:13:26.871Z,7.70
2022-10-18T08:18:47.721Z,7.43
2022-10-18T08:24:08.610Z,8.40
2022-10-18T08:29:31.867Z,8.15
2022-10-18T08:34:53.253Z,8.90
2022-10-18T08:40:14.909Z,7.80
2022-10-18T08:45:43.157Z,10.15
2022-10-18T08:51:06.873Z,9.90
2022-10-18T08:56:27.816Z,9.38
2022-10-18T09:02:06.881Z,8.80
2022-10-18T09:07:51.892Z,9.02
2022-10-18T09:13:28.115Z,8.23
2022-10-18T09:18:58.628Z,15.82
2022-10-18T09:24:25.557Z,13.40
2022-10-18T09:29:49.376Z,13.95
2022-10-18T09:35:31.725Z,11.98
2022-10-18T09:40:57.331Z,10.15
2022-10-18T09:46:21.896Z,9.38
2022-10-18T09:51:44.736Z,7.82
2022-10-18T09:57:26.661Z,8.80
2022-10-18T10:02:47.337Z,9.50
2022-10-18T10:08:08.404Z,8.02
2022-10-18T10:13:29.450Z,9.80
2022-10-18T10:19:20.214Z,9.00
2022-10-18T10:24:50.784Z,8.40
2022-10-18T10:30:34.932Z,9.17
2022-10-18T10:36:01.777Z,13.93
2022-10-18T10:41:24.178Z,13.07
2022-10-18T10:46:48.099Z,9.93
2022-10-18T10:52:33.955Z,10.25
2022-10-18T10:57:56.495Z,9.38
2022-10-18T11:03:29.544Z,8.55
2022-10-18T11:08:53.181Z,11.93
2022-10-18T11:14:27.054Z,8.82
2022-10-18T11:20:07.065Z,6.10
2022-10-18T11:26:06.615Z,4.75
2022-10-18T11:31:48.593Z,4.88
2022-10-18T11:37:31.127Z,5.68
2022-10-18T11:42:59.051Z,5.80
2022-10-18T11:48:56.948Z,5.68
2022-10-18T11:54:47.398Z,5.38
2022-10-18T12:00:23.861Z,4.70
2022-10-18T12:05:47.259Z,5.00
2022-10-18T12:11:41.037Z,5.25
2022-10-18T12:17:40.791Z,5.75
2022-10-18T12:23:01.057Z,5.15
2022-10-18T12:28:49.854Z,4.50
2022-10-18T12:34:22.890Z,8.75
2022-10-18T12:40:09.365Z,4.65
2022-10-18T12:45:35.341Z,4.57
2022-10-18T12:51:20.909Z,5.53
2022-10-18T12:56:44.048Z,4.90
2022-10-18T13:02:05.132Z,7.32
2022-10-18T13:13:38.591Z,8.10
2022-10-18T13:19:28.682Z,6.78
2022-10-18T13:25:11.352Z,7.20
2022-10-18T13:30:47.923Z,12.55
2022-10-18T13:36:22.738Z,7.72
2022-10-18T13:41:47.477Z,9.38
2022-10-18T13:47:14.176Z,7.40
2022-10-18T13:53:38.512Z,8.70
2022-10-18T13:59:26.860Z,8.95
2022-10-18T14:05:23.107Z,8.95
2022-10-18T14:11:02.240Z,9.77
2022-10-18T14:16:58.143Z,8.93
2022-10-18T14:22:28.556Z,9.13
2022-10-18T14:28:02.362Z,9.27
2022-10-18T14:33:37.033Z,9.45
2022-10-18T14:39:04.505Z,8.70
2022-10-18T14:44:31.030Z,8.68
2022-10-18T14:49:57.657Z,8.75
2022-10-18T14:55:23.867Z,8.85
2022-10-18T15:00:48.482Z,9.63
2022-10-18T15:06:18.914Z,8.80
2022-10-18T15:11:41.551Z,9.05
2022-10-18T15:17:21.683Z,8.48
2022-10-18T15:23:01.431Z,8.60
2022-10-18T15:28:32.891Z,8.63
2022-10-18T15:34:22.453Z,8.63
2022-10-18T15:39:43.373Z,7.90
2022-10-18T15:45:22.306Z,8.50
2022-10-18T15:50:44.512Z,8.13
2022-10-18T15:56:24.111Z,7.82
2022-10-18T16:01:45.355Z,9.02
2022-10-18T16:07:06.123Z,8.52
2022-10-18T16:12:27.055Z,8.38
2022-10-18T16:17:48.622Z,9.30
2022-10-18T16:23:17.351Z,9.35
2022-10-18T16:28:39.127Z,9.75
2022-10-18T16:34:01.913Z,9.55
2022-10-18T16:39:23.785Z,8.73
2022-10-18T16:44:45.468Z,9.55
2022-10-18T16:50:08.631Z,9.30
2022-10-18T16:55:30.587Z,9.85
2022-10-18T17:00:52.033Z,10.05
2022-10-18T17:06:17.911Z,10.35
2022-10-18T17:11:38.824Z,9.18
2022-10-18T17:16:59.736Z,9.13
2022-10-18T17:27:42.302Z,9.07
2022-10-18T17:33:03.320Z,10.23
2022-10-18T17:38:24.154Z,9.07
2022-10-18T17:49:05.883Z,9.03
2022-10-18T17:54:26.903Z,8.77
2022-10-18T17:59:48.880Z,9.27
2022-10-18T18:05:09.762Z,8.82
2022-10-18T18:10:32.020Z,8.82
2022-10-18T18:15:52.960Z,8.10
2022-10-18T18:21:14.127Z,8.70
2022-10-18T18:26:35.959Z,8.43
2022-10-18T18:31:57.221Z,8.50
2022-10-18T18:37:18.397Z,7.75
2022-10-18T18:42:39.441Z,8.43
2022-10-18T18:53:21.083Z,8.10
2022-10-18T18:58:44.135Z,7.75
2022-10-18T19:04:07.028Z,7.28
2022-10-18T19:09:28.060Z,7.07
2022-10-18T19:14:49.142Z,6.85
2022-10-18T19:20:12.764Z,7.38
2022-10-18T19:25:33.667Z,7.68
2022-10-18T19:36:16.873Z,6.82
2022-10-18T19:41:37.823Z,6.35
2022-10-18T19:46:59.440Z,6.40
2022-10-18T19:52:20.368Z,5.75
2022-10-18T19:57:41.498Z,6.38
2022-10-18T20:03:02.424Z,6.65
2022-10-18T20:08:24.287Z,6.20
2022-10-18T20:13:45.189Z,6.80
2022-10-18T20:19:07.743Z,5.70
2022-10-18T20:24:28.716Z,5.13
2022-10-18T20:29:49.671Z,6.32
2022-10-18T20:35:10.804Z,6.03
2022-10-18T20:40:32.556Z,5.72
2022-10-18T20:45:58.159Z,5.00
2022-10-18T20:51:20.168Z,4.47
2022-10-18T20:56:41.091Z,4.50
2022-10-18T21:02:02.081Z,4.93
2022-10-18T21:07:22.929Z,6.00
2022-10-18T21:12:43.838Z,4.45
2022-10-18T21:18:04.762Z,4.32
2022-10-18T21:28:46.806Z,4.28
2022-10-18T21:34:13.526Z,3.92
2022-10-18T21:39:35.158Z,4.43
2022-10-18T21:44:56.092Z,4.43
2022-10-18T21:55:37.667Z,3.95
